sensor_id;sensor_type;location;lat;lon;timestamp;P1;durP1;ratioP1;P2;durP2;ratioP2
55913;SDS011;58179;48.776;9.124;2022-09-01T00:01:12;39.75;;;23.45;;
55913;SDS011;58179;48.776;9.124;2022-09-01T00:03:44;37.73;;;25.90;;
55913;SDS011;58179;48.776;9.124;2022-09-01T00:06:12;37.17;;;24.35;;
55913;SDS011;58179;48.776;9.124;2022-09-01T00:08:40;36.58;;;24.33;;
55913;SDS011;58179;48.776;9.124;2022-09-01T00:11:06;30.48;;;21.60;;
55913;SDS011;58179;48.776;9.124;2022-09-01T00:13:32;35.10;;;26.05;;
55913;SDS011;58179;48.776;9.124;2022-09-01T00:15:58;31.30;;;23.95;;
55913;SDS011;58179;48.776;9.124;2022-09-01T00:18:28;36.22;;;25.73;;
55913;SDS011;58179;48.776;9.124;2022-09-01T00:20:55;40.60;;;25.98;;
55913;SDS011;58179;48.776;9.124;2022-09-01T00:23:23;35.45;;;25.05;;
55913;SDS011;58179;48.776;9.124;2022-09-01T00:25:51;35.80;;;25.38;;
55913;SDS011;58179;48.776;9.124;2022-09-01T00:28:19;28.73;;;23.33;;
55913;SDS011;58179;48.776;9.124;2022-09-01T00:30:45;31.85;;;22.58;;
55913;SDS011;58179;48.776;9.124;2022-09-01T00:33:12;36.43;;;25.97;;
55913;SDS011;58179;48.776;9.124;2022-09-01T00:35:38;32.28;;;23.73;;
55913;SDS011;58179;48.776;9.124;2022-09-01T00:38:04;39.80;;;25.83;;
55913;SDS011;58179;48.776;9.124;2022-09-01T00:40:30;36.57;;;24.87;;
55913;SDS011;58179;48.776;9.124;2022-09-01T00:42:58;43.28;;;26.42;;
55913;SDS011;58179;48.776;9.124;2022-09-01T00:45:24;42.15;;;27.77;;
55913;SDS011;58179;48.776;9.124;2022-09-01T00:47:52;41.40;;;28.88;;
55913;SDS011;58179;48.776;9.124;2022-09-01T00:50:18;40.70;;;27.13;;
55913;SDS011;58179;48.776;9.124;2022-09-01T00:52:47;46.95;;;31.65;;
55913;SDS011;58179;48.776;9.124;2022-09-01T00:55:18;40.25;;;29.63;;
55913;SDS011;58179;48.776;9.124;2022-09-01T00:57:50;48.58;;;32.17;;
55913;SDS011;58179;48.776;9.124;2022-09-01T01:00:18;48.40;;;32.33;;
55913;SDS011;58179;48.776;9.124;2022-09-01T01:02:48;42.75;;;28.75;;
55913;SDS011;58179;48.776;9.124;2022-09-01T01:05:20;50.30;;;32.53;;
55913;SDS011;58179;48.776;9.124;2022-09-01T01:07:47;45.95;;;31.15;;
55913;SDS011;58179;48.776;9.124;2022-09-01T01:10:14;41.17;;;29.42;;
55913;SDS011;58179;48.776;9.124;2022-09-01T01:12:44;43.25;;;28.25;;
55913;SDS011;58179;48.776;9.124;2022-09-01T01:15:11;39.25;;;28.88;;
55913;SDS011;58179;48.776;9.124;2022-09-01T01:17:40;39.90;;;27.67;;
55913;SDS011;58179;48.776;9.124;2022-09-01T01:20:07;41.03;;;28.98;;
55913;SDS011;58179;48.776;9.124;2022-09-01T01:22:56;44.38;;;30.02;;
55913;SDS011;58179;48.776;9.124;2022-09-01T01:25:35;42.03;;;28.75;;
55913;SDS011;58179;48.776;9.124;2022-09-01T01:28:05;42.08;;;29.27;;
55913;SDS011;58179;48.776;9.124;2022-09-01T01:30:36;41.47;;;28.42;;
55913;SDS011;58179;48.776;9.124;2022-09-01T01:33:06;33.40;;;23.98;;
55913;SDS011;58179;48.776;9.124;2022-09-01T01:35:33;38.72;;;26.52;;
55913;SDS011;58179;48.776;9.124;2022-09-01T01:38:00;40.50;;;25.45;;
55913;SDS011;58179;48.776;9.124;2022-09-01T01:40:31;36.95;;;25.27;;
55913;SDS011;58179;48.776;9.124;2022-09-01T01:42:59;34.45;;;25.67;;
55913;SDS011;58179;48.776;9.124;2022-09-01T01:45:25;35.03;;;24.33;;
55913;SDS011;58179;48.776;9.124;2022-09-01T01:47:53;34.25;;;25.38;;
55913;SDS011;58179;48.776;9.124;2022-09-01T01:50:20;35.75;;;24.38;;
55913;SDS011;58179;48.776;9.124;2022-09-01T01:52:48;33.90;;;24.60;;
55913;SDS011;58179;48.776;9.124;2022-09-01T01:55:14;32.50;;;24.27;;
55913;SDS011;58179;48.776;9.124;2022-09-01T01:57:43;35.87;;;23.40;;
55913;SDS011;58179;48.776;9.124;2022-09-01T02:00:15;31.98;;;22.27;;
55913;SDS011;58179;48.776;9.124;2022-09-01T02:02:44;35.00;;;24.15;;
55913;SDS011;58179;48.776;9.124;2022-09-01T02:05:17;36.83;;;24.73;;
55913;SDS011;58179;48.776;9.124;2022-09-01T02:07:49;29.90;;;22.92;;
55913;SDS011;58179;48.776;9.124;2022-09-01T02:10:20;36.17;;;23.83;;
55913;SDS011;58179;48.776;9.124;2022-09-01T02:12:48;33.75;;;23.50;;
55913;SDS011;58179;48.776;9.124;2022-09-01T02:15:15;35.45;;;23.00;;
55913;SDS011;58179;48.776;9.124;2022-09-01T02:17:41;31.35;;;22.33;;
55913;SDS011;58179;48.776;9.124;2022-09-01T02:20:09;31.48;;;22.13;;
55913;SDS011;58179;48.776;9.124;2022-09-01T02:22:35;34.70;;;22.27;;
55913;SDS011;58179;48.776;9.124;2022-09-01T02:25:04;41.10;;;25.83;;
55913;SDS011;58179;48.776;9.124;2022-09-01T02:27:32;35.97;;;24.17;;
55913;SDS011;58179;48.776;9.124;2022-09-01T02:30:01;38.20;;;23.50;;
55913;SDS011;58179;48.776;9.124;2022-09-01T02:32:29;32.60;;;22.35;;
55913;SDS011;58179;48.776;9.124;2022-09-01T02:34:56;32.63;;;22.15;;
55913;SDS011;58179;48.776;9.124;2022-09-01T02:37:25;38.40;;;25.60;;
55913;SDS011;58179;48.776;9.124;2022-09-01T02:39:51;37.13;;;24.73;;
55913;SDS011;58179;48.776;9.124;2022-09-01T02:42:20;43.45;;;25.92;;
55913;SDS011;58179;48.776;9.124;2022-09-01T02:44:51;34.38;;;24.13;;
55913;SDS011;58179;48.776;9.124;2022-09-01T02:47:18;41.40;;;26.17;;
55913;SDS011;58179;48.776;9.124;2022-09-01T02:49:46;39.55;;;26.67;;
55913;SDS011;58179;48.776;9.124;2022-09-01T02:52:12;41.08;;;27.05;;
55913;SDS011;58179;48.776;9.124;2022-09-01T02:54:40;51.90;;;31.45;;
55913;SDS011;58179;48.776;9.124;2022-09-01T02:57:09;40.13;;;26.27;;
55913;SDS011;58179;48.776;9.124;2022-09-01T02:59:36;43.22;;;28.45;;
55913;SDS011;58179;48.776;9.124;2022-09-01T03:02:03;40.83;;;27.58;;
55913;SDS011;58179;48.776;9.124;2022-09-01T03:04:32;41.85;;;27.58;;
55913;SDS011;58179;48.776;9.124;2022-09-01T03:07:00;40.20;;;26.90;;
55913;SDS011;58179;48.776;9.124;2022-09-01T03:09:27;38.08;;;25.63;;
55913;SDS011;58179;48.776;9.124;2022-09-01T03:11:53;41.50;;;27.80;;
55913;SDS011;58179;48.776;9.124;2022-09-01T03:14:20;43.95;;;27.13;;
55913;SDS011;58179;48.776;9.124;2022-09-01T03:16:47;37.40;;;26.27;;
55913;SDS011;58179;48.776;9.124;2022-09-01T03:19:13;37.40;;;26.17;;
55913;SDS011;58179;48.776;9.124;2022-09-01T03:21:43;42.23;;;27.37;;
55913;SDS011;58179;48.776;9.124;2022-09-01T03:24:12;46.10;;;29.20;;
55913;SDS011;58179;48.776;9.124;2022-09-01T03:26:42;42.05;;;28.13;;
55913;SDS011;58179;48.776;9.124;2022-09-01T03:29:10;46.67;;;29.52;;
55913;SDS011;58179;48.776;9.124;2022-09-01T03:31:36;45.25;;;30.10;;
55913;SDS011;58179;48.776;9.124;2022-09-01T03:34:02;46.47;;;29.42;;
55913;SDS011;58179;48.776;9.124;2022-09-01T03:36:30;40.47;;;27.75;;
55913;SDS011;58179;48.776;9.124;2022-09-01T03:38:57;48.45;;;30.50;;
55913;SDS011;58179;48.776;9.124;2022-09-01T03:41:27;42.42;;;29.02;;
55913;SDS011;58179;48.776;9.124;2022-09-01T03:43:55;48.95;;;31.08;;
55913;SDS011;58179;48.776;9.124;2022-09-01T03:46:24;41.30;;;27.87;;
55913;SDS011;58179;48.776;9.124;2022-09-01T03:48:52;40.63;;;27.73;;
55913;SDS011;58179;48.776;9.124;2022-09-01T03:51:23;42.60;;;27.38;;
55913;SDS011;58179;48.776;9.124;2022-09-01T03:53:50;43.80;;;26.92;;
55913;SDS011;58179;48.776;9.124;2022-09-01T03:56:18;42.72;;;26.42;;
55913;SDS011;58179;48.776;9.124;2022-09-01T03:58:46;42.90;;;27.35;;
55913;SDS011;58179;48.776;9.124;2022-09-01T04:01:13;46.20;;;29.73;;
55913;SDS011;58179;48.776;9.124;2022-09-01T04:03:40;47.53;;;29.50;;
55913;SDS011;58179;48.776;9.124;2022-09-01T04:06:07;52.15;;;31.98;;
55913;SDS011;58179;48.776;9.124;2022-09-01T04:08:34;47.88;;;30.92;;
55913;SDS011;58179;48.776;9.124;2022-09-01T04:11:00;53.08;;;32.42;;
55913;SDS011;58179;48.776;9.124;2022-09-01T04:13:34;43.17;;;29.33;;
55913;SDS011;58179;48.776;9.124;2022-09-01T04:16:04;42.88;;;29.00;;
55913;SDS011;58179;48.776;9.124;2022-09-01T04:18:34;41.45;;;27.10;;
55913;SDS011;58179;48.776;9.124;2022-09-01T04:21:00;42.17;;;29.13;;
55913;SDS011;58179;48.776;9.124;2022-09-01T04:23:27;47.88;;;30.50;;
55913;SDS011;58179;48.776;9.124;2022-09-01T04:25:59;43.03;;;28.55;;
55913;SDS011;58179;48.776;9.124;2022-09-01T04:28:34;43.67;;;27.30;;
55913;SDS011;58179;48.776;9.124;2022-09-01T04:31:05;41.40;;;27.02;;
55913;SDS011;58179;48.776;9.124;2022-09-01T04:33:34;46.10;;;29.45;;
55913;SDS011;58179;48.776;9.124;2022-09-01T04:36:04;36.60;;;26.63;;
55913;SDS011;58179;48.776;9.124;2022-09-01T04:38:37;43.28;;;27.40;;
55913;SDS011;58179;48.776;9.124;2022-09-01T04:41:03;47.75;;;30.00;;
55913;SDS011;58179;48.776;9.124;2022-09-01T04:43:30;49.17;;;30.70;;
55913;SDS011;58179;48.776;9.124;2022-09-01T04:45:56;47.88;;;30.80;;
55913;SDS011;58179;48.776;9.124;2022-09-01T04:48:25;44.70;;;28.63;;
55913;SDS011;58179;48.776;9.124;2022-09-01T04:50:51;45.35;;;29.63;;
55913;SDS011;58179;48.776;9.124;2022-09-01T04:53:17;40.03;;;26.67;;
55913;SDS011;58179;48.776;9.124;2022-09-01T04:55:45;43.95;;;27.85;;
55913;SDS011;58179;48.776;9.124;2022-09-01T04:58:12;40.17;;;27.87;;
55913;SDS011;58179;48.776;9.124;2022-09-01T05:00:42;49.50;;;29.67;;
55913;SDS011;58179;48.776;9.124;2022-09-01T05:03:11;39.25;;;27.55;;
55913;SDS011;58179;48.776;9.124;2022-09-01T05:05:39;41.75;;;28.08;;
55913;SDS011;58179;48.776;9.124;2022-09-01T05:08:08;43.35;;;28.33;;
55913;SDS011;58179;48.776;9.124;2022-09-01T05:10:39;43.58;;;27.67;;
55913;SDS011;58179;48.776;9.124;2022-09-01T05:13:08;42.47;;;29.25;;
55913;SDS011;58179;48.776;9.124;2022-09-01T05:15:35;52.25;;;31.83;;
55913;SDS011;58179;48.776;9.124;2022-09-01T05:18:02;44.95;;;30.00;;
55913;SDS011;58179;48.776;9.124;2022-09-01T05:20:35;47.05;;;29.42;;
55913;SDS011;58179;48.776;9.124;2022-09-01T05:23:05;45.95;;;28.65;;
55913;SDS011;58179;48.776;9.124;2022-09-01T05:25:36;41.55;;;27.02;;
55913;SDS011;58179;48.776;9.124;2022-09-01T05:28:07;39.97;;;26.33;;
55913;SDS011;58179;48.776;9.124;2022-09-01T05:30:36;43.90;;;29.38;;
55913;SDS011;58179;48.776;9.124;2022-09-01T05:33:04;39.60;;;26.27;;
55913;SDS011;58179;48.776;9.124;2022-09-01T05:35:40;42.33;;;29.02;;
55913;SDS011;58179;48.776;9.124;2022-09-01T05:38:17;45.08;;;28.50;;
55913;SDS011;58179;48.776;9.124;2022-09-01T05:40:43;42.70;;;28.40;;
55913;SDS011;58179;48.776;9.124;2022-09-01T05:43:18;39.77;;;27.27;;
55913;SDS011;58179;48.776;9.124;2022-09-01T05:45:45;42.63;;;27.85;;
55913;SDS011;58179;48.776;9.124;2022-09-01T05:48:12;42.53;;;27.50;;
55913;SDS011;58179;48.776;9.124;2022-09-01T05:50:40;41.47;;;27.48;;
55913;SDS011;58179;48.776;9.124;2022-09-01T05:53:09;42.80;;;27.75;;
55913;SDS011;58179;48.776;9.124;2022-09-01T05:55:43;37.83;;;25.88;;
55913;SDS011;58179;48.776;9.124;2022-09-01T05:58:10;40.88;;;26.98;;
55913;SDS011;58179;48.776;9.124;2022-09-01T06:00:38;39.40;;;26.90;;
55913;SDS011;58179;48.776;9.124;2022-09-01T06:03:06;44.37;;;27.57;;
55913;SDS011;58179;48.776;9.124;2022-09-01T06:05:34;38.97;;;27.17;;
55913;SDS011;58179;48.776;9.124;2022-09-01T06:08:01;38.17;;;27.40;;
55913;SDS011;58179;48.776;9.124;2022-09-01T06:10:29;43.72;;;29.23;;
55913;SDS011;58179;48.776;9.124;2022-09-01T06:12:57;44.85;;;29.42;;
55913;SDS011;58179;48.776;9.124;2022-09-01T06:15:26;42.10;;;29.58;;
55913;SDS011;58179;48.776;9.124;2022-09-01T06:17:54;49.45;;;31.63;;
55913;SDS011;58179;48.776;9.124;2022-09-01T06:20:21;45.58;;;30.67;;
55913;SDS011;58179;48.776;9.124;2022-09-01T06:22:47;49.67;;;33.00;;
55913;SDS011;58179;48.776;9.124;2022-09-01T06:25:13;44.92;;;32.63;;
55913;SDS011;58179;48.776;9.124;2022-09-01T06:27:42;49.38;;;32.58;;
55913;SDS011;58179;48.776;9.124;2022-09-01T06:30:11;51.50;;;32.25;;
55913;SDS011;58179;48.776;9.124;2022-09-01T06:32:41;50.03;;;32.65;;
55913;SDS011;58179;48.776;9.124;2022-09-01T06:35:08;45.92;;;31.45;;
55913;SDS011;58179;48.776;9.124;2022-09-01T06:37:36;49.70;;;32.60;;
55913;SDS011;58179;48.776;9.124;2022-09-01T06:40:02;47.63;;;31.10;;
55913;SDS011;58179;48.776;9.124;2022-09-01T06:42:30;41.78;;;29.98;;
55913;SDS011;58179;48.776;9.124;2022-09-01T06:44:59;42.22;;;29.13;;
55913;SDS011;58179;48.776;9.124;2022-09-01T06:47:26;43.22;;;30.08;;
55913;SDS011;58179;48.776;9.124;2022-09-01T06:49:55;41.63;;;29.35;;
55913;SDS011;58179;48.776;9.124;2022-09-01T06:52:23;42.53;;;30.10;;
55913;SDS011;58179;48.776;9.124;2022-09-01T06:54:49;42.85;;;29.42;;
55913;SDS011;58179;48.776;9.124;2022-09-01T06:57:20;39.90;;;28.43;;
55913;SDS011;58179;48.776;9.124;2022-09-01T06:59:46;41.95;;;29.30;;
55913;SDS011;58179;48.776;9.124;2022-09-01T07:02:14;41.00;;;28.60;;
55913;SDS011;58179;48.776;9.124;2022-09-01T07:04:41;38.35;;;28.55;;
55913;SDS011;58179;48.776;9.124;2022-09-01T07:07:09;40.30;;;28.33;;
55913;SDS011;58179;48.776;9.124;2022-09-01T07:09:37;45.20;;;31.08;;
55913;SDS011;58179;48.776;9.124;2022-09-01T07:12:04;40.90;;;29.02;;
55913;SDS011;58179;48.776;9.124;2022-09-01T07:14:30;41.13;;;28.35;;
55913;SDS011;58179;48.776;9.124;2022-09-01T07:16:56;35.92;;;26.80;;
55913;SDS011;58179;48.776;9.124;2022-09-01T07:19:22;38.17;;;27.73;;
55913;SDS011;58179;48.776;9.124;2022-09-01T07:21:51;37.65;;;27.13;;
55913;SDS011;58179;48.776;9.124;2022-09-01T07:24:17;37.17;;;26.38;;
55913;SDS011;58179;48.776;9.124;2022-09-01T07:26:45;37.83;;;25.75;;
55913;SDS011;58179;48.776;9.124;2022-09-01T07:29:17;35.13;;;25.33;;
55913;SDS011;58179;48.776;9.124;2022-09-01T07:31:46;36.60;;;24.70;;
55913;SDS011;58179;48.776;9.124;2022-09-01T07:34:13;34.40;;;24.30;;
55913;SDS011;58179;48.776;9.124;2022-09-01T07:36:41;35.30;;;24.60;;
55913;SDS011;58179;48.776;9.124;2022-09-01T07:39:10;35.08;;;25.35;;
55913;SDS011;58179;48.776;9.124;2022-09-01T07:41:38;36.47;;;24.13;;
55913;SDS011;58179;48.776;9.124;2022-09-01T07:44:06;30.23;;;22.40;;
55913;SDS011;58179;48.776;9.124;2022-09-01T07:46:37;29.25;;;23.02;;
55913;SDS011;58179;48.776;9.124;2022-09-01T07:49:04;32.80;;;23.40;;
55913;SDS011;58179;48.776;9.124;2022-09-01T07:51:30;30.95;;;22.23;;
55913;SDS011;58179;48.776;9.124;2022-09-01T07:53:59;29.88;;;22.67;;
55913;SDS011;58179;48.776;9.124;2022-09-01T07:56:28;28.50;;;21.35;;
55913;SDS011;58179;48.776;9.124;2022-09-01T07:58:54;28.58;;;21.02;;
55913;SDS011;58179;48.776;9.124;2022-09-01T08:01:24;27.53;;;20.60;;
55913;SDS011;58179;48.776;9.124;2022-09-01T08:03:52;28.70;;;20.03;;
55913;SDS011;58179;48.776;9.124;2022-09-01T08:06:21;28.70;;;20.52;;
55913;SDS011;58179;48.776;9.124;2022-09-01T08:08:50;24.57;;;19.07;;
55913;SDS011;58179;48.776;9.124;2022-09-01T08:11:20;26.97;;;18.40;;
55913;SDS011;58179;48.776;9.124;2022-09-01T08:13:50;23.37;;;17.33;;
55913;SDS011;58179;48.776;9.124;2022-09-01T08:16:17;24.05;;;17.63;;
55913;SDS011;58179;48.776;9.124;2022-09-01T08:18:44;23.88;;;17.00;;
55913;SDS011;58179;48.776;9.124;2022-09-01T08:21:12;22.05;;;16.38;;
55913;SDS011;58179;48.776;9.124;2022-09-01T08:23:39;19.98;;;14.85;;
55913;SDS011;58179;48.776;9.124;2022-09-01T08:26:06;18.35;;;14.02;;
55913;SDS011;58179;48.776;9.124;2022-09-01T08:28:34;19.73;;;14.98;;
55913;SDS011;58179;48.776;9.124;2022-09-01T08:31:05;19.27;;;14.40;;
55913;SDS011;58179;48.776;9.124;2022-09-01T08:33:34;16.80;;;13.80;;
55913;SDS011;58179;48.776;9.124;2022-09-01T08:36:00;17.63;;;13.75;;
55913;SDS011;58179;48.776;9.124;2022-09-01T08:38:28;17.75;;;13.50;;
55913;SDS011;58179;48.776;9.124;2022-09-01T08:40:56;18.97;;;13.90;;
55913;SDS011;58179;48.776;9.124;2022-09-01T08:43:25;19.80;;;14.98;;
55913;SDS011;58179;48.776;9.124;2022-09-01T08:46:10;16.60;;;13.20;;
55913;SDS011;58179;48.776;9.124;2022-09-01T08:48:41;16.67;;;12.68;;
55913;SDS011;58179;48.776;9.124;2022-09-01T08:51:12;20.40;;;13.73;;
55913;SDS011;58179;48.776;9.124;2022-09-01T08:53:46;17.52;;;13.20;;
55913;SDS011;58179;48.776;9.124;2022-09-01T08:56:22;16.02;;;12.93;;
55913;SDS011;58179;48.776;9.124;2022-09-01T08:58:48;19.02;;;12.43;;
55913;SDS011;58179;48.776;9.124;2022-09-01T09:01:17;17.25;;;11.60;;
55913;SDS011;58179;48.776;9.124;2022-09-01T09:03:56;14.45;;;11.27;;
55913;SDS011;58179;48.776;9.124;2022-09-01T09:06:40;15.88;;;11.38;;
55913;SDS011;58179;48.776;9.124;2022-09-01T09:09:13;12.98;;;10.63;;
55913;SDS011;58179;48.776;9.124;2022-09-01T09:17:33;13.25;;;9.90;;
55913;SDS011;58179;48.776;9.124;2022-09-01T09:20:04;14.93;;;10.55;;
55913;SDS011;58179;48.776;9.124;2022-09-01T09:22:31;14.57;;;11.53;;
55913;SDS011;58179;48.776;9.124;2022-09-01T09:24:58;14.30;;;10.57;;
55913;SDS011;58179;48.776;9.124;2022-09-01T09:27:32;13.30;;;10.75;;
55913;SDS011;58179;48.776;9.124;2022-09-01T09:30:02;11.48;;;9.88;;
55913;SDS011;58179;48.776;9.124;2022-09-01T09:32:43;12.05;;;10.13;;
55913;SDS011;58179;48.776;9.124;2022-09-01T09:35:18;11.73;;;9.68;;
55913;SDS011;58179;48.776;9.124;2022-09-01T09:37:49;11.70;;;9.30;;
55913;SDS011;58179;48.776;9.124;2022-09-01T09:40:16;11.80;;;9.38;;
55913;SDS011;58179;48.776;9.124;2022-09-01T09:43:00;11.65;;;8.70;;
55913;SDS011;58179;48.776;9.124;2022-09-01T09:45:32;13.43;;;9.00;;
55913;SDS011;58179;48.776;9.124;2022-09-01T09:48:05;13.05;;;8.60;;
55913;SDS011;58179;48.776;9.124;2022-09-01T09:50:34;11.80;;;8.95;;
55913;SDS011;58179;48.776;9.124;2022-09-01T09:53:09;13.13;;;9.88;;
55913;SDS011;58179;48.776;9.124;2022-09-01T09:55:49;11.82;;;9.32;;
55913;SDS011;58179;48.776;9.124;2022-09-01T09:58:21;12.00;;;9.20;;
55913;SDS011;58179;48.776;9.124;2022-09-01T10:00:57;11.45;;;8.98;;
55913;SDS011;58179;48.776;9.124;2022-09-01T10:03:34;11.30;;;8.05;;
55913;SDS011;58179;48.776;9.124;2022-09-01T10:06:08;9.70;;;7.90;;
55913;SDS011;58179;48.776;9.124;2022-09-01T10:08:37;11.65;;;7.88;;
55913;SDS011;58179;48.776;9.124;2022-09-01T10:11:09;10.23;;;7.40;;
55913;SDS011;58179;48.776;9.124;2022-09-01T10:13:50;9.25;;;7.75;;
55913;SDS011;58179;48.776;9.124;2022-09-01T10:16:18;12.15;;;8.82;;
55913;SDS011;58179;48.776;9.124;2022-09-01T10:18:53;13.35;;;7.93;;
55913;SDS011;58179;48.776;9.124;2022-09-01T10:21:25;9.32;;;6.70;;
55913;SDS011;58179;48.776;9.124;2022-09-01T10:23:57;11.70;;;7.07;;
55913;SDS011;58179;48.776;9.124;2022-09-01T10:26:25;9.73;;;6.95;;
55913;SDS011;58179;48.776;9.124;2022-09-01T10:28:59;7.90;;;6.90;;
55913;SDS011;58179;48.776;9.124;2022-09-01T10:31:31;7.20;;;5.70;;
55913;SDS011;58179;48.776;9.124;2022-09-01T10:34:01;7.40;;;6.03;;
55913;SDS011;58179;48.776;9.124;2022-09-01T10:36:30;11.30;;;6.13;;
55913;SDS011;58179;48.776;9.124;2022-09-01T10:38:58;8.80;;;6.45;;
55913;SDS011;58179;48.776;9.124;2022-09-01T10:44:19;8.00;;;5.43;;
55913;SDS011;58179;48.776;9.124;2022-09-01T10:46:50;8.63;;;6.10;;
55913;SDS011;58179;48.776;9.124;2022-09-01T10:49:55;7.03;;;5.50;;
55913;SDS011;58179;48.776;9.124;2022-09-01T10:55:21;6.65;;;4.90;;
55913;SDS011;58179;48.776;9.124;2022-09-01T10:57:52;5.88;;;5.28;;
55913;SDS011;58179;48.776;9.124;2022-09-01T11:00:45;6.85;;;4.97;;
55913;SDS011;58179;48.776;9.124;2022-09-01T11:03:32;5.07;;;4.38;;
55913;SDS011;58179;48.776;9.124;2022-09-01T11:09:23;7.82;;;5.03;;
55913;SDS011;58179;48.776;9.124;2022-09-01T11:15:00;6.82;;;4.57;;
55913;SDS011;58179;48.776;9.124;2022-09-01T11:17:29;4.93;;;4.00;;
55913;SDS011;58179;48.776;9.124;2022-09-01T11:20:07;6.85;;;4.13;;
55913;SDS011;58179;48.776;9.124;2022-09-01T11:22:56;4.95;;;4.20;;
55913;SDS011;58179;48.776;9.124;2022-09-01T11:25:31;5.22;;;3.97;;
55913;SDS011;58179;48.776;9.124;2022-09-01T11:28:09;6.82;;;4.30;;
55913;SDS011;58179;48.776;9.124;2022-09-01T11:31:01;4.63;;;3.77;;
55913;SDS011;58179;48.776;9.124;2022-09-01T11:34:02;5.18;;;4.30;;
55913;SDS011;58179;48.776;9.124;2022-09-01T11:36:46;5.72;;;4.35;;
55913;SDS011;58179;48.776;9.124;2022-09-01T11:42:17;5.45;;;4.75;;
55913;SDS011;58179;48.776;9.124;2022-09-01T11:44:47;6.50;;;5.20;;
55913;SDS011;58179;48.776;9.124;2022-09-01T11:47:18;5.80;;;4.85;;
55913;SDS011;58179;48.776;9.124;2022-09-01T11:49:50;5.57;;;4.47;;
55913;SDS011;58179;48.776;9.124;2022-09-01T11:52:21;5.90;;;4.78;;
55913;SDS011;58179;48.776;9.124;2022-09-01T11:54:51;6.40;;;4.55;;
55913;SDS011;58179;48.776;9.124;2022-09-01T11:57:20;6.13;;;4.47;;
55913;SDS011;58179;48.776;9.124;2022-09-01T11:59:55;11.50;;;4.40;;
55913;SDS011;58179;48.776;9.124;2022-09-01T12:02:24;7.05;;;3.67;;
55913;SDS011;58179;48.776;9.124;2022-09-01T12:04:54;5.88;;;4.00;;
55913;SDS011;58179;48.776;9.124;2022-09-01T12:07:36;5.70;;;3.75;;
55913;SDS011;58179;48.776;9.124;2022-09-01T12:10:19;9.30;;;3.88;;
55913;SDS011;58179;48.776;9.124;2022-09-01T12:12:58;5.50;;;4.05;;
55913;SDS011;58179;48.776;9.124;2022-09-01T12:15:29;3.90;;;3.50;;
55913;SDS011;58179;48.776;9.124;2022-09-01T12:18:08;6.55;;;3.72;;
55913;SDS011;58179;48.776;9.124;2022-09-01T12:20:39;3.90;;;3.53;;
55913;SDS011;58179;48.776;9.124;2022-09-01T12:23:14;4.22;;;3.83;;
55913;SDS011;58179;48.776;9.124;2022-09-01T12:25:48;5.38;;;3.60;;
55913;SDS011;58179;48.776;9.124;2022-09-01T12:28:14;5.65;;;3.35;;
55913;SDS011;58179;48.776;9.124;2022-09-01T12:30:41;5.35;;;3.35;;
55913;SDS011;58179;48.776;9.124;2022-09-01T12:33:09;4.60;;;3.40;;
55913;SDS011;58179;48.776;9.124;2022-09-01T12:35:38;4.10;;;3.50;;
55913;SDS011;58179;48.776;9.124;2022-09-01T12:38:15;5.75;;;3.70;;
55913;SDS011;58179;48.776;9.124;2022-09-01T12:40:49;4.53;;;3.53;;
55913;SDS011;58179;48.776;9.124;2022-09-01T12:43:26;5.78;;;3.65;;
55913;SDS011;58179;48.776;9.124;2022-09-01T12:46:02;4.10;;;3.28;;
55913;SDS011;58179;48.776;9.124;2022-09-01T12:48:31;6.85;;;3.92;;
55913;SDS011;58179;48.776;9.124;2022-09-01T12:50:59;5.10;;;3.90;;
55913;SDS011;58179;48.776;9.124;2022-09-01T12:53:31;3.88;;;3.55;;
55913;SDS011;58179;48.776;9.124;2022-09-01T12:56:14;4.53;;;3.70;;
55913;SDS011;58179;48.776;9.124;2022-09-01T12:58:46;6.00;;;4.07;;
55913;SDS011;58179;48.776;9.124;2022-09-01T13:01:26;4.43;;;3.63;;
55913;SDS011;58179;48.776;9.124;2022-09-01T13:04:09;4.90;;;3.92;;
55913;SDS011;58179;48.776;9.124;2022-09-01T13:06:49;4.70;;;3.80;;
55913;SDS011;58179;48.776;9.124;2022-09-01T13:09:15;4.60;;;3.60;;
55913;SDS011;58179;48.776;9.124;2022-09-01T13:11:43;4.30;;;3.40;;
55913;SDS011;58179;48.776;9.124;2022-09-01T13:14:12;5.72;;;3.85;;
55913;SDS011;58179;48.776;9.124;2022-09-01T13:16:39;4.82;;;3.53;;
55913;SDS011;58179;48.776;9.124;2022-09-01T13:19:06;4.00;;;3.40;;
55913;SDS011;58179;48.776;9.124;2022-09-01T13:21:33;5.43;;;3.50;;
55913;SDS011;58179;48.776;9.124;2022-09-01T13:24:00;3.45;;;3.05;;
55913;SDS011;58179;48.776;9.124;2022-09-01T13:26:29;3.20;;;2.90;;
55913;SDS011;58179;48.776;9.124;2022-09-01T13:28:56;5.40;;;3.10;;
55913;SDS011;58179;48.776;9.124;2022-09-01T13:31:23;3.35;;;3.03;;
55913;SDS011;58179;48.776;9.124;2022-09-01T13:33:50;3.80;;;3.00;;
55913;SDS011;58179;48.776;9.124;2022-09-01T13:36:16;3.38;;;3.08;;
55913;SDS011;58179;48.776;9.124;2022-09-01T13:38:43;3.78;;;3.35;;
55913;SDS011;58179;48.776;9.124;2022-09-01T13:41:09;2.97;;;2.67;;
55913;SDS011;58179;48.776;9.124;2022-09-01T13:43:35;3.20;;;2.90;;
55913;SDS011;58179;48.776;9.124;2022-09-01T13:46:03;3.45;;;2.42;;
55913;SDS011;58179;48.776;9.124;2022-09-01T13:48:30;3.10;;;2.45;;
55913;SDS011;58179;48.776;9.124;2022-09-01T13:50:58;12.75;;;3.60;;
55913;SDS011;58179;48.776;9.124;2022-09-01T13:53:24;5.13;;;2.65;;
55913;SDS011;58179;48.776;9.124;2022-09-01T13:55:49;3.50;;;2.70;;
55913;SDS011;58179;48.776;9.124;2022-09-01T13:58:15;2.97;;;2.67;;
55913;SDS011;58179;48.776;9.124;2022-09-01T14:00:42;3.20;;;2.85;;
55913;SDS011;58179;48.776;9.124;2022-09-01T14:03:12;4.47;;;2.95;;
55913;SDS011;58179;48.776;9.124;2022-09-01T14:05:42;2.97;;;2.67;;
55913;SDS011;58179;48.776;9.124;2022-09-01T14:08:12;3.63;;;2.88;;
55913;SDS011;58179;48.776;9.124;2022-09-01T14:10:40;3.28;;;2.53;;
55913;SDS011;58179;48.776;9.124;2022-09-01T14:13:09;3.10;;;2.53;;
55913;SDS011;58179;48.776;9.124;2022-09-01T14:15:36;5.97;;;2.50;;
55913;SDS011;58179;48.776;9.124;2022-09-01T14:18:03;4.55;;;2.90;;
55913;SDS011;58179;48.776;9.124;2022-09-01T14:20:32;5.35;;;2.70;;
55913;SDS011;58179;48.776;9.124;2022-09-01T14:23:00;3.97;;;2.60;;
55913;SDS011;58179;48.776;9.124;2022-09-01T14:25:28;4.22;;;2.60;;
55913;SDS011;58179;48.776;9.124;2022-09-01T14:27:55;5.88;;;2.85;;
55913;SDS011;58179;48.776;9.124;2022-09-01T14:30:22;3.15;;;2.55;;
55913;SDS011;58179;48.776;9.124;2022-09-01T14:32:50;4.68;;;2.75;;
55913;SDS011;58179;48.776;9.124;2022-09-01T14:35:17;4.10;;;3.00;;
55913;SDS011;58179;48.776;9.124;2022-09-01T14:37:49;3.70;;;3.00;;
55913;SDS011;58179;48.776;9.124;2022-09-01T14:40:16;12.93;;;3.50;;
55913;SDS011;58179;48.776;9.124;2022-09-01T14:42:45;7.65;;;3.17;;
55913;SDS011;58179;48.776;9.124;2022-09-01T14:45:13;3.20;;;2.70;;
55913;SDS011;58179;48.776;9.124;2022-09-01T14:47:42;3.65;;;2.60;;
55913;SDS011;58179;48.776;9.124;2022-09-01T14:50:08;4.05;;;2.55;;
55913;SDS011;58179;48.776;9.124;2022-09-01T14:52:36;4.80;;;2.53;;
55913;SDS011;58179;48.776;9.124;2022-09-01T14:55:06;2.60;;;2.40;;
55913;SDS011;58179;48.776;9.124;2022-09-01T14:57:33;4.45;;;2.47;;
55913;SDS011;58179;48.776;9.124;2022-09-01T14:59:59;3.05;;;2.45;;
55913;SDS011;58179;48.776;9.124;2022-09-01T15:02:25;3.88;;;2.45;;
55913;SDS011;58179;48.776;9.124;2022-09-01T15:04:53;2.70;;;2.40;;
55913;SDS011;58179;48.776;9.124;2022-09-01T15:07:19;2.60;;;2.40;;